createdAt,value
2022-12-17T00:02:33.636Z,1.20
2022-12-17T00:05:19.739Z,1.20
2022-12-17T00:08:05.756Z,1.20
2022-12-17T00:10:51.733Z,1.20
2022-12-17T00:13:39.213Z,1.10
2022-12-17T00:16:25.883Z,1.10
2022-12-17T00:19:13.393Z,1.20
2022-12-17T00:21:59.484Z,1.10
2022-12-17T00:24:45.733Z,1.10
2022-12-17T00:27:31.992Z,1.10
2022-12-17T00:30:18.062Z,1.10
2022-12-17T00:33:04.011Z,1.10
2022-12-17T00:35:51.513Z,1.10
2022-12-17T00:38:37.904Z,1.10
2022-12-17T00:41:24.083Z,1.10
2022-12-17T00:44:11.352Z,1.10
2022-12-17T00:46:57.355Z,1.10
2022-12-17T00:49:44.603Z,1.10
2022-12-17T00:52:31.894Z,1.10
2022-12-17T00:55:17.702Z,1.00
2022-12-17T00:58:04.076Z,1.10
2022-12-17T01:00:50.130Z,1.00
2022-12-17T01:03:36.593Z,1.00
2022-12-17T01:06:25.912Z,1.00
2022-12-17T01:09:12.991Z,1.00
2022-12-17T01:11:59.341Z,1.00
2022-12-17T01:14:46.142Z,1.00
2022-12-17T01:17:32.049Z,1.00
2022-12-17T01:20:29.673Z,1.00
2022-12-17T01:23:26.818Z,1.00
2022-12-17T01:26:15.021Z,1.00
2022-12-17T01:29:01.414Z,1.00
2022-12-17T01:31:47.406Z,1.00
2022-12-17T01:34:35.440Z,1.00
2022-12-17T01:37:22.707Z,0.90
2022-12-17T01:40:08.639Z,0.90
2022-12-17T01:43:01.089Z,1.00
2022-12-17T01:45:52.129Z,0.90
2022-12-17T01:48:50.839Z,0.90
2022-12-17T01:51:37.682Z,0.90
2022-12-17T01:54:24.405Z,0.90
2022-12-17T01:57:10.597Z,0.90
2022-12-17T02:00:04.563Z,0.80
2022-12-17T02:03:08.238Z,0.80
2022-12-17T02:06:02.527Z,0.80
2022-12-17T02:08:56.703Z,0.80
2022-12-17T02:11:52.043Z,0.80
2022-12-17T02:14:44.236Z,0.80
2022-12-17T02:17:42.225Z,0.80
2022-12-17T02:20:38.994Z,0.80
2022-12-17T02:23:32.551Z,0.80
2022-12-17T02:26:22.566Z,0.70
2022-12-17T02:29:11.256Z,0.70
2022-12-17T02:31:59.535Z,0.70
2022-12-17T02:34:57.098Z,0.70
2022-12-17T02:37:42.788Z,0.60
2022-12-17T02:40:29.461Z,0.70
2022-12-17T02:43:16.439Z,0.60
2022-12-17T02:46:05.130Z,0.60
2022-12-17T02:48:51.858Z,0.60
2022-12-17T02:51:38.157Z,0.60
2022-12-17T02:54:24.466Z,0.50
2022-12-17T02:57:10.135Z,0.50
2022-12-17T02:59:55.688Z,0.50
2022-12-17T03:02:44.054Z,0.50
2022-12-17T03:05:44.920Z,0.40
2022-12-17T03:08:31.833Z,0.40
2022-12-17T03:11:17.933Z,0.30
2022-12-17T03:14:03.642Z,0.30
2022-12-17T03:16:49.813Z,0.30
2022-12-17T03:19:36.666Z,0.30
2022-12-17T03:22:22.375Z,0.30
2022-12-17T03:25:07.974Z,0.30
2022-12-17T03:27:53.513Z,0.20
2022-12-17T03:30:39.502Z,0.20
2022-12-17T03:33:27.028Z,0.20
2022-12-17T03:36:14.008Z,0.20
2022-12-17T03:38:59.662Z,0.20
2022-12-17T03:41:45.413Z,0.20
2022-12-17T03:44:31.056Z,0.20
2022-12-17T03:47:16.845Z,0.20
2022-12-17T03:50:02.370Z,0.20
2022-12-17T03:52:49.611Z,0.20
2022-12-17T03:55:35.568Z,0.10
2022-12-17T03:58:26.773Z,0.20
2022-12-17T04:01:12.581Z,0.10
2022-12-17T04:03:58.264Z,0.10
2022-12-17T04:06:43.957Z,0.10
2022-12-17T04:09:31.028Z,0.10
2022-12-17T04:12:16.806Z,0.10
2022-12-17T04:15:02.719Z,0.10
2022-12-17T04:17:48.338Z,0.00
2022-12-17T04:20:34.068Z,0.10
2022-12-17T04:23:18.971Z,0.00
2022-12-17T04:26:05.900Z,0.00
2022-12-17T04:28:51.638Z,-0.10
2022-12-17T04:31:37.270Z,-0.10
2022-12-17T04:34:23.233Z,-0.10
2022-12-17T04:37:08.869Z,-0.10
2022-12-17T04:39:54.705Z,-0.10
2022-12-17T04:42:41.765Z,-0.10
2022-12-17T04:45:27.920Z,-0.10
2022-12-17T04:48:20.245Z,-0.10
2022-12-17T04:51:05.910Z,-0.10
2022-12-17T04:53:51.667Z,-0.10
2022-12-17T04:56:37.351Z,-0.10
2022-12-17T04:59:24.480Z,-0.10
2022-12-17T05:02:10.578Z,0.00
2022-12-17T05:04:56.184Z,-0.10
2022-12-17T05:07:42.078Z,0.00
2022-12-17T05:10:28.235Z,-0.10
2022-12-17T05:13:26.464Z,-0.10
2022-12-17T05:16:16.185Z,-0.10
2022-12-17T05:19:01.828Z,-0.10
2022-12-17T05:21:47.633Z,-0.10
2022-12-17T05:24:33.669Z,-0.10
2022-12-17T05:27:19.212Z,-0.10
2022-12-17T05:30:05.078Z,-0.10
2022-12-17T05:32:52.647Z,-0.10
2022-12-17T05:35:38.404Z,-0.10
2022-12-17T05:38:40.247Z,-0.10
2022-12-17T05:41:26.225Z,-0.10
2022-12-17T05:44:12.178Z,-0.20
2022-12-17T05:46:57.811Z,-0.20
2022-12-17T05:49:50.138Z,-0.20
2022-12-17T05:52:36.024Z,-0.20
2022-12-17T05:55:21.814Z,-0.20
2022-12-17T05:58:07.335Z,-0.20
2022-12-17T06:00:53.410Z,-0.20
2022-12-17T06:03:39.703Z,-0.20
2022-12-17T06:06:26.885Z,-0.20
2022-12-17T06:09:12.800Z,-0.30
2022-12-17T06:12:12.923Z,-0.30
2022-12-17T06:14:58.606Z,-0.30
2022-12-17T06:17:44.196Z,-0.30
2022-12-17T06:20:29.973Z,-0.30
2022-12-17T06:23:20.474Z,-0.30
2022-12-17T06:26:06.265Z,-0.30
2022-12-17T06:28:52.168Z,-0.30
2022-12-17T06:31:46.361Z,-0.40
2022-12-17T06:34:32.111Z,-0.40
2022-12-17T06:37:17.786Z,-0.40
2022-12-17T06:40:04.698Z,-0.50
2022-12-17T06:42:50.305Z,-0.50
2022-12-17T06:45:36.249Z,-0.50
2022-12-17T06:48:22.789Z,-0.60
2022-12-17T06:51:09.301Z,-0.60
2022-12-17T06:53:55.135Z,-0.60
2022-12-17T06:56:41.946Z,-0.60
2022-12-17T06:59:27.866Z,-0.60
2022-12-17T07:02:13.706Z,-0.60
2022-12-17T07:04:59.776Z,-0.60
2022-12-17T07:07:45.555Z,-0.60
2022-12-17T07:10:31.787Z,-0.60
2022-12-17T07:13:24.154Z,-0.60
2022-12-17T07:16:10.262Z,-0.60
2022-12-17T07:18:56.325Z,-0.60
2022-12-17T07:21:42.878Z,-0.60
2022-12-17T07:24:29.000Z,-0.70
2022-12-17T07:27:14.996Z,-0.70
2022-12-17T07:30:01.862Z,-0.70
2022-12-17T07:32:47.834Z,-0.70
2022-12-17T07:35:33.667Z,-0.70
2022-12-17T07:38:20.700Z,-0.60
2022-12-17T07:41:06.435Z,-0.60
2022-12-17T07:43:53.342Z,-0.60
2022-12-17T07:46:40.814Z,-0.60
2022-12-17T07:49:25.995Z,-0.60
2022-12-17T07:52:12.288Z,-0.60
2022-12-17T07:54:57.847Z,-0.60
2022-12-17T07:57:44.818Z,-0.60
2022-12-17T08:00:32.147Z,-0.50
2022-12-17T08:03:31.829Z,-0.50
2022-12-17T08:06:18.079Z,-0.40
2022-12-17T08:09:03.835Z,-0.30
2022-12-17T08:11:49.746Z,-0.20
2022-12-17T08:14:35.377Z,-0.10
2022-12-17T08:17:21.273Z,0.00
2022-12-17T08:20:08.680Z,0.10
2022-12-17T08:22:54.268Z,0.20
2022-12-17T08:25:40.298Z,0.30
2022-12-17T08:28:49.698Z,0.40
2022-12-17T08:31:32.967Z,0.40
2022-12-17T08:34:18.718Z,0.40
2022-12-17T08:37:05.579Z,0.40
2022-12-17T08:39:51.485Z,0.40
2022-12-17T08:42:37.086Z,0.40
2022-12-17T08:45:23.414Z,0.40
2022-12-17T08:48:17.638Z,0.50
2022-12-17T08:51:03.688Z,0.70
2022-12-17T08:53:50.511Z,1.30
2022-12-17T08:56:36.446Z,2.00
2022-12-17T08:59:22.489Z,2.80
2022-12-17T09:02:09.020Z,3.60
2022-12-17T09:04:55.166Z,4.30
2022-12-17T09:07:41.096Z,4.80
2022-12-17T09:10:28.717Z,5.40
2022-12-17T09:13:14.265Z,5.70
2022-12-17T09:16:00.202Z,5.70
2022-12-17T09:18:46.128Z,5.50
2022-12-17T09:21:31.698Z,5.20
2022-12-17T09:24:17.475Z,4.90
2022-12-17T09:27:05.097Z,4.60
2022-12-17T09:29:51.314Z,4.40
2022-12-17T09:32:37.184Z,4.30
2022-12-17T09:35:23.603Z,4.50
2022-12-17T09:38:11.246Z,4.80
2022-12-17T09:40:58.846Z,5.20
2022-12-17T09:43:54.026Z,5.80
2022-12-17T09:46:46.526Z,6.30
2022-12-17T09:49:36.726Z,6.60
2022-12-17T09:52:29.355Z,6.90
2022-12-17T09:55:15.264Z,7.20
2022-12-17T09:58:01.538Z,7.60
2022-12-17T10:00:48.468Z,8.00
2022-12-17T10:03:37.285Z,8.00
2022-12-17T10:06:29.348Z,7.90
2022-12-17T10:09:18.671Z,7.60
2022-12-17T10:12:04.841Z,7.30
2022-12-17T10:14:50.930Z,6.90
2022-12-17T10:17:40.117Z,6.80
2022-12-17T10:20:38.541Z,6.60
2022-12-17T10:23:36.416Z,6.50
2022-12-17T10:26:25.543Z,6.60
2022-12-17T10:29:21.346Z,6.60
2022-12-17T10:32:03.594Z,6.50
2022-12-17T10:35:04.978Z,6.30
2022-12-17T10:38:08.753Z,6.10
2022-12-17T10:41:00.108Z,5.90
2022-12-17T10:43:48.153Z,5.60
2022-12-17T10:46:44.711Z,5.30
2022-12-17T10:49:34.998Z,4.90
2022-12-17T10:52:25.419Z,4.50
2022-12-17T10:55:20.311Z,4.30
2022-12-17T10:58:10.484Z,4.10
2022-12-17T11:00:58.796Z,4.10
2022-12-17T11:03:48.117Z,4.00
2022-12-17T11:06:42.562Z,3.90
2022-12-17T11:09:43.077Z,3.80
2022-12-17T11:12:31.285Z,3.70
2022-12-17T11:15:26.088Z,3.70
2022-12-17T11:18:12.348Z,3.80
2022-12-17T11:21:07.915Z,3.80
2022-12-17T11:23:58.779Z,3.90
2022-12-17T11:26:49.067Z,3.90
2022-12-17T11:29:34.817Z,3.90
2022-12-17T11:32:58.907Z,4.00
2022-12-17T11:35:51.381Z,4.00
2022-12-17T11:39:04.600Z,3.90
2022-12-17T11:42:11.564Z,3.90
2022-12-17T11:45:11.070Z,3.70
2022-12-17T11:48:05.524Z,3.50
2022-12-17T11:50:57.827Z,3.30
2022-12-17T11:54:02.897Z,3.20
2022-12-17T11:56:54.175Z,3.00
2022-12-17T11:59:52.700Z,2.90
2022-12-17T12:03:01.739Z,2.80
2022-12-17T12:06:00.688Z,2.70
2022-12-17T12:08:48.476Z,2.60
2022-12-17T12:11:44.435Z,2.50
2022-12-17T12:14:53.237Z,2.40
2022-12-17T12:17:53.510Z,2.30
2022-12-17T12:20:53.382Z,2.20
2022-12-17T12:23:47.198Z,2.20
2022-12-17T12:26:36.881Z,2.10
2022-12-17T12:29:38.216Z,2.00
2022-12-17T12:32:28.924Z,2.00
2022-12-17T12:35:21.546Z,1.90
2022-12-17T12:38:07.238Z,1.80
2022-12-17T12:40:58.815Z,1.80
2022-12-17T12:43:49.301Z,1.80
2022-12-17T12:46:39.629Z,1.80
2022-12-17T12:49:33.304Z,1.90
2022-12-17T12:52:21.072Z,2.00
2022-12-17T12:55:12.406Z,2.10
2022-12-17T12:58:02.178Z,2.20
2022-12-17T13:00:57.937Z,2.30
2022-12-17T13:03:47.431Z,2.30
2022-12-17T13:06:37.568Z,2.20
2022-12-17T13:09:20.964Z,2.20
2022-12-17T13:11:50.847Z,2.10
2022-12-17T13:14:24.047Z,2.10
2022-12-17T13:16:56.012Z,2.10
2022-12-17T13:19:37.188Z,2.20
2022-12-17T13:22:13.007Z,2.40
2022-12-17T13:24:44.174Z,2.60
2022-12-17T13:27:31.209Z,2.90
2022-12-17T13:30:00.624Z,3.30
2022-12-17T13:32:33.414Z,3.50
2022-12-17T13:35:18.741Z,3.80
2022-12-17T13:37:58.409Z,3.90
2022-12-17T13:40:42.885Z,4.10
2022-12-17T13:43:18.407Z,4.20
2022-12-17T13:45:47.200Z,4.20
2022-12-17T13:48:23.202Z,4.20
2022-12-17T13:50:56.436Z,4.10
2022-12-17T13:53:24.779Z,4.00
2022-12-17T13:55:57.046Z,3.90
2022-12-17T13:58:27.771Z,3.70
2022-12-17T14:01:07.382Z,3.50
2022-12-17T14:04:04.310Z,3.30
2022-12-17T14:06:26.157Z,3.10
2022-12-17T14:08:57.335Z,2.90
2022-12-17T14:11:45.568Z,2.60
2022-12-17T14:14:28.550Z,2.40
2022-12-17T14:16:57.164Z,2.20
2022-12-17T14:19:26.355Z,2.00
2022-12-17T14:21:55.350Z,1.80
2022-12-17T14:24:27.339Z,1.60
2022-12-17T14:26:58.856Z,1.40
2022-12-17T14:29:28.969Z,1.20
2022-12-17T14:31:59.768Z,1.10
2022-12-17T14:34:28.293Z,0.90
2022-12-17T14:36:59.073Z,0.80
2022-12-17T14:39:30.078Z,0.70
2022-12-17T14:42:26.367Z,0.60
2022-12-17T14:44:56.226Z,0.50
2022-12-17T14:47:27.274Z,0.40
2022-12-17T14:50:02.109Z,0.30
2022-12-17T14:52:40.072Z,0.20
2022-12-17T14:55:33.834Z,0.10
2022-12-17T14:58:27.913Z,0.00
2022-12-17T15:01:00.636Z,-0.10
2022-12-17T15:03:30.473Z,-0.10
2022-12-17T15:06:00.402Z,-0.20
2022-12-17T15:08:32.891Z,-0.20
2022-12-17T15:11:01.390Z,-0.30
2022-12-17T15:13:30.992Z,-0.30
2022-12-17T15:15:59.354Z,-0.40
2022-12-17T15:18:27.702Z,-0.40
2022-12-17T15:20:56.226Z,-0.50
2022-12-17T15:23:25.809Z,-0.50
2022-12-17T15:25:55.045Z,-0.60
2022-12-17T15:28:24.660Z,-0.60
2022-12-17T15:30:54.393Z,-0.60
2022-12-17T15:33:23.097Z,-0.60
2022-12-17T15:35:51.496Z,-0.70
2022-12-17T15:38:19.858Z,-0.70
2022-12-17T15:40:48.165Z,-0.70
2022-12-17T15:43:15.975Z,-0.70
2022-12-17T15:45:46.294Z,-0.80
2022-12-17T15:48:17.856Z,-0.80
2022-12-17T15:50:46.177Z,-0.80
2022-12-17T15:53:14.666Z,-0.80
2022-12-17T15:55:43.216Z,-0.80
2022-12-17T15:58:11.719Z,-0.80
2022-12-17T16:00:40.068Z,-0.80
2022-12-17T16:03:08.487Z,-0.80
2022-12-17T16:05:38.484Z,-0.90
2022-12-17T16:08:07.856Z,-0.90
2022-12-17T16:10:36.184Z,-0.90
2022-12-17T16:13:04.600Z,-0.90
2022-12-17T16:15:33.449Z,-0.90
2022-12-17T16:18:01.805Z,-0.90
2022-12-17T16:20:29.986Z,-1.00
2022-12-17T16:23:01.191Z,-1.00
2022-12-17T16:25:29.686Z,-1.00
2022-12-17T16:27:58.065Z,-1.00
2022-12-17T16:30:26.480Z,-1.00
2022-12-17T16:32:54.714Z,-1.00
2022-12-17T16:35:24.002Z,-1.00
2022-12-17T16:37:52.348Z,-1.00
2022-12-17T16:40:22.087Z,-1.00
2022-12-17T16:42:50.546Z,-1.00
2022-12-17T16:45:19.618Z,-1.00
2022-12-17T16:47:47.917Z,-1.00
2022-12-17T16:50:16.952Z,-1.10
2022-12-17T16:52:45.270Z,-1.00
2022-12-17T16:55:13.615Z,-1.00
2022-12-17T16:57:43.217Z,-1.10
2022-12-17T17:00:13.230Z,-1.10
2022-12-17T17:02:41.907Z,-1.10
2022-12-17T17:05:10.509Z,-1.10
2022-12-17T17:07:38.835Z,-1.10
2022-12-17T17:10:07.873Z,-1.10
2022-12-17T17:12:37.605Z,-1.10
2022-12-17T17:15:08.380Z,-1.10
2022-12-17T17:17:55.514Z,-1.10
2022-12-17T17:20:24.863Z,-1.10
2022-12-17T17:22:53.148Z,-1.10
2022-12-17T17:25:22.254Z,-1.10
2022-12-17T17:27:50.486Z,-1.10
2022-12-17T17:30:20.228Z,-1.10
2022-12-17T17:32:48.756Z,-1.10
2022-12-17T17:35:17.105Z,-1.10
2022-12-17T17:37:45.445Z,-1.20
2022-12-17T17:40:14.457Z,-1.20
2022-12-17T17:42:46.097Z,-1.20
2022-12-17T17:45:17.099Z,-1.20
2022-12-17T17:47:46.870Z,-1.20
2022-12-17T17:50:15.164Z,-1.20
2022-12-17T17:52:43.545Z,-1.20
2022-12-17T17:55:11.907Z,-1.20
2022-12-17T17:57:40.217Z,-1.20
2022-12-17T18:00:09.424Z,-1.20
2022-12-17T18:02:38.771Z,-1.20
2022-12-17T18:05:08.975Z,-1.20
2022-12-17T18:07:37.326Z,-1.20
2022-12-17T18:10:06.268Z,-1.20
2022-12-17T18:12:51.969Z,-1.20
2022-12-17T18:15:20.267Z,-1.20
2022-12-17T18:17:51.858Z,-1.20
2022-12-17T18:20:21.473Z,-1.20
2022-12-17T18:22:50.638Z,-1.20
2022-12-17T18:25:20.099Z,-1.20
2022-12-17T18:27:48.311Z,-1.20
2022-12-17T18:30:17.340Z,-1.20
2022-12-17T18:32:45.773Z,-1.20
2022-12-17T18:35:13.985Z,-1.20
2022-12-17T18:37:43.567Z,-1.20
2022-12-17T18:40:12.528Z,-1.20
2022-12-17T18:42:58.736Z,-1.30
2022-12-17T18:45:27.025Z,-1.30
2022-12-17T18:47:55.377Z,-1.30
2022-12-17T18:50:23.669Z,-1.30
2022-12-17T18:52:53.368Z,-1.30
2022-12-17T18:55:21.695Z,-1.30
2022-12-17T18:57:50.147Z,-1.30
2022-12-17T19:00:18.733Z,-1.30
2022-12-17T19:02:47.247Z,-1.40
2022-12-17T19:05:15.747Z,-1.40
2022-12-17T19:07:44.112Z,-1.40
2022-12-17T19:10:13.706Z,-1.40
2022-12-17T19:12:41.963Z,-1.40
2022-12-17T19:15:10.969Z,-1.40
2022-12-17T19:17:39.248Z,-1.50
2022-12-17T19:20:08.364Z,-1.50
2022-12-17T19:22:36.706Z,-1.50
2022-12-17T19:25:05.444Z,-1.50
2022-12-17T19:27:35.115Z,-1.50
2022-12-17T19:30:03.411Z,-1.60
2022-12-17T19:32:31.705Z,-1.60
2022-12-17T19:35:00.067Z,-1.60
2022-12-17T19:37:28.475Z,-1.60
2022-12-17T19:39:56.779Z,-1.60
2022-12-17T19:42:35.185Z,-1.70
2022-12-17T19:45:07.125Z,-1.70
2022-12-17T19:47:35.453Z,-1.70
2022-12-17T19:50:03.815Z,-1.80
2022-12-17T19:52:32.158Z,-1.80
2022-12-17T19:55:00.439Z,-1.80
2022-12-17T19:57:28.796Z,-1.80
2022-12-17T19:59:57.160Z,-1.80
2022-12-17T20:02:32.478Z,-1.90
2022-12-17T20:05:01.803Z,-1.90
2022-12-17T20:07:30.142Z,-1.90
2022-12-17T20:09:58.460Z,-1.90
2022-12-17T20:12:30.030Z,-1.90
2022-12-17T20:14:58.279Z,-1.90
2022-12-17T20:17:27.867Z,-1.90
2022-12-17T20:19:57.973Z,-1.90
2022-12-17T20:22:26.528Z,-1.90
2022-12-17T20:24:54.925Z,-1.90
2022-12-17T20:27:23.360Z,-1.90
2022-12-17T20:29:51.667Z,-1.90
2022-12-17T20:32:21.417Z,-1.90
2022-12-17T20:34:51.684Z,-1.90
2022-12-17T20:37:20.139Z,-1.90
2022-12-17T20:39:48.388Z,-1.90
2022-12-17T20:42:17.981Z,-1.90
2022-12-17T20:44:51.577Z,-1.90
2022-12-17T20:47:21.845Z,-1.90
2022-12-17T20:49:51.483Z,-1.90
2022-12-17T20:52:19.886Z,-2.00
2022-12-17T20:54:49.441Z,-1.90
2022-12-17T20:57:17.940Z,-2.00
2022-12-17T20:59:46.333Z,-2.00
2022-12-17T21:02:14.878Z,-2.00
2022-12-17T21:04:43.269Z,-2.00
2022-12-17T21:07:12.862Z,-2.00
2022-12-17T21:09:41.696Z,-2.00
2022-12-17T21:12:12.468Z,-2.10
2022-12-17T21:14:41.037Z,-2.10
2022-12-17T21:17:09.553Z,-2.20
2022-12-17T21:19:38.174Z,-2.20
2022-12-17T21:22:06.897Z,-2.20
2022-12-17T21:24:41.726Z,-2.20
2022-12-17T21:27:14.761Z,-2.20
2022-12-17T21:29:43.606Z,-2.20
2022-12-17T21:32:12.066Z,-2.30
2022-12-17T21:34:40.743Z,-2.30
2022-12-17T21:37:11.223Z,-2.30
2022-12-17T21:39:41.094Z,-2.30
2022-12-17T21:42:26.988Z,-2.30
2022-12-17T21:44:55.323Z,-2.40
2022-12-17T21:47:23.972Z,-2.40
2022-12-17T21:49:52.293Z,-2.40
2022-12-17T21:52:20.708Z,-2.40
2022-12-17T21:54:50.252Z,-2.40
2022-12-17T21:57:18.576Z,-2.40
2022-12-17T21:59:46.936Z,-2.50
2022-12-17T22:02:15.378Z,-2.50
2022-12-17T22:04:44.205Z,-2.50
2022-12-17T22:07:22.256Z,-2.50
2022-12-17T22:10:25.739Z,-2.50
2022-12-17T22:13:02.843Z,-2.50
2022-12-17T22:15:34.464Z,-2.50
2022-12-17T22:18:13.097Z,-2.50
2022-12-17T22:20:41.418Z,-2.50
2022-12-17T22:23:09.656Z,-2.50
2022-12-17T22:25:40.458Z,-2.50
2022-12-17T22:28:08.751Z,-2.50
2022-12-17T22:30:54.629Z,-2.50
2022-12-17T22:34:00.899Z,-2.50
2022-12-17T22:38:21.578Z,-2.50
2022-12-17T22:41:55.856Z,-2.50
2022-12-17T22:44:32.403Z,-2.50
2022-12-17T22:45:08.110Z,-2.50
2022-12-17T22:47:37.114Z,-2.50
2022-12-17T22:50:05.907Z,-2.60
2022-12-17T22:52:34.767Z,-2.60
2022-12-17T22:55:03.406Z,-2.60
2022-12-17T22:57:37.423Z,-2.60
2022-12-17T23:00:10.043Z,-2.60
2022-12-17T23:02:38.613Z,-2.70
2022-12-17T23:05:07.428Z,-2.70
2022-12-17T23:07:35.878Z,-2.70
2022-12-17T23:10:04.367Z,-2.70
2022-12-17T23:12:52.624Z,-2.70
2022-12-17T23:15:24.059Z,-2.70
2022-12-17T23:17:54.194Z,-2.70
2022-12-17T23:20:23.166Z,-2.80
2022-12-17T23:22:51.577Z,-2.80
2022-12-17T23:25:20.273Z,-2.80
2022-12-17T23:27:50.463Z,-2.80
2022-12-17T23:30:19.708Z,-2.80
2022-12-17T23:32:48.318Z,-2.90
2022-12-17T23:35:16.633Z,-2.90
2022-12-17T23:37:45.065Z,-2.90
2022-12-17T23:40:14.036Z,-2.90
2022-12-17T23:42:42.396Z,-2.90
2022-12-17T23:45:12.643Z,-2.90
2022-12-17T23:47:42.169Z,-2.80
2022-12-17T23:50:11.936Z,-2.90
2022-12-17T23:52:40.484Z,-2.80
2022-12-17T23:55:11.177Z,-2.80
2022-12-17T23:57:39.562Z,-2.90
